Time;durP1;ratioP1;P1;durP2;ratioP2;P2;SDS_P1;SDS_P2;PMS_P1;PMS_P2;Temp;Humidity;BMP_temperature;BMP_pressure;BME280_temperature;BME280_humidity;BME280_pressure;Samples;Min_cycle;Max_cycle;Signal;HPM_P1;HPM_P2
2022/06/09 00:01:36;;;;;;;5.85;2.05;;;12.80;99.90;;;;;;5069469;28;20028;-96
2022/06/09 00:04:17;;;;;;;11.32;2.47;;;12.70;99.90;;;;;;5067285;28;20025;-94
2022/06/09 00:06:51;;;;;;;6.88;1.85;;;12.70;99.90;;;;;;5072212;28;20017;-93
2022/06/09 00:09:19;;;;;;;4.80;1.90;;;12.60;99.90;;;;;;5073428;28;20055;-94
2022/06/09 00:11:49;;;;;;;8.55;1.80;;;12.60;99.90;;;;;;5074568;28;20021;-95
2022/06/09 00:14:16;;;;;;;6.65;2.20;;;12.60;99.90;;;;;;5074692;28;20037;-95
2022/06/09 00:16:43;;;;;;;15.05;2.60;;;12.60;99.90;;;;;;5078187;28;20028;-93
2022/06/09 00:19:09;;;;;;;9.13;2.33;;;12.50;99.90;;;;;;5078613;28;20063;-91
2022/06/09 00:21:37;;;;;;;11.75;2.22;;;12.40;99.90;;;;;;5077424;28;20028;-93
2022/06/09 00:24:05;;;;;;;11.05;1.90;;;12.30;99.90;;;;;;5078164;28;20021;-93
2022/06/09 00:26:32;;;;;;;7.78;1.80;;;12.30;99.90;;;;;;5078007;28;20044;-92
2022/06/09 00:28:58;;;;;;;11.32;2.33;;;12.30;99.90;;;;;;5076132;28;20035;-94
2022/06/09 00:31:24;;;;;;;8.52;2.00;;;12.20;99.90;;;;;;5073870;28;20020;-93
2022/06/09 00:33:50;;;;;;;13.93;2.00;;;12.20;99.90;;;;;;5078242;28;20023;-93
2022/06/09 00:36:16;;;;;;;8.82;1.88;;;12.30;99.90;;;;;;5077775;28;20044;-93
2022/06/09 00:38:42;;;;;;;3.35;1.40;;;12.20;99.90;;;;;;5078109;28;20048;-90
2022/06/09 00:41:11;;;;;;;5.65;1.65;;;12.20;99.90;;;;;;5077896;28;20017;-91
2022/06/09 00:43:37;;;;;;;10.05;2.22;;;12.20;99.90;;;;;;5077803;28;20049;-93
2022/06/09 00:46:16;;;;;;;6.30;1.60;;;12.20;99.90;;;;;;5077361;28;20036;-92
2022/06/09 00:48:56;;;;;;;10.93;1.90;;;12.20;99.90;;;;;;5078065;28;20049;-90
2022/06/09 00:51:37;;;;;;;10.95;1.90;;;12.20;99.90;;;;;;5077316;28;20037;-92
2022/06/09 00:54:20;;;;;;;;;;;12.20;99.90;;;;;;5077834;28;20049;-89
2022/06/09 00:57:00;;;;;;;15.05;1.90;;;12.20;99.90;;;;;;5074554;28;19912;-91
2022/06/09 00:59:26;;;;;;;11.50;2.30;;;12.20;99.90;;;;;;5077492;28;20021;-91
2022/06/09 01:01:54;;;;;;;13.40;2.30;;;12.10;99.90;;;;;;5076719;28;20088;-93
2022/06/09 01:04:22;;;;;;;7.13;1.75;;;12.10;99.90;;;;;;5077336;28;20043;-92
2022/06/09 01:07:08;;;;;;;18.27;2.33;;;12.00;99.90;;;;;;5077056;28;20097;-90
2022/06/09 01:09:35;;;;;;;12.60;2.45;;;12.00;99.90;;;;;;5077501;28;20012;-90
2022/06/09 01:12:01;;;;;;;7.05;2.17;;;11.90;99.90;;;;;;5077650;28;20044;-89
2022/06/09 01:14:29;;;;;;;12.57;2.22;;;11.90;99.90;;;;;;5077550;28;20017;-90
2022/06/09 01:17:29;;;;;;;12.05;1.85;;;11.90;99.90;;;;;;5077943;28;20020;-92
2022/06/09 01:20:12;;;;;;;13.60;1.98;;;11.80;99.90;;;;;;5076477;28;20032;-92
2022/06/09 01:23:00;;;;;;;8.98;2.08;;;11.80;99.90;;;;;;5076315;28;20040;-92
2022/06/09 01:25:51;;;;;;;13.10;2.30;;;11.70;99.90;;;;;;5076538;28;20009;-94
2022/06/09 01:28:45;;;;;;;9.70;2.25;;;11.70;99.90;;;;;;5076050;28;20135;-93
2022/06/09 01:31:38;;;;;;;8.88;2.03;;;11.70;99.90;;;;;;5075883;28;20029;-92
2022/06/09 01:34:06;;;;;;;14.30;2.90;;;11.70;99.90;;;;;;5076874;28;20044;-91
2022/06/09 01:36:36;;;;;;;8.85;2.05;;;11.70;99.90;;;;;;5078121;28;20044;-92
2022/06/09 01:39:05;;;;;;;10.20;2.28;;;11.70;99.90;;;;;;5076094;28;20026;-93
2022/06/09 01:41:31;;;;;;;13.20;2.58;;;11.70;99.90;;;;;;5074646;28;20017;-93
2022/06/09 01:43:58;;;;;;;8.15;1.85;;;11.70;99.90;;;;;;5073628;28;20021;-95
2022/06/09 01:46:33;;;;;;;13.57;2.47;;;11.70;99.90;;;;;;5071027;28;20043;-93
2022/06/09 01:49:10;;;;;;;12.25;2.13;;;11.70;99.90;;;;;;5072095;28;20021;-95
2022/06/09 01:51:43;;;;;;;10.10;2.03;;;11.70;99.90;;;;;;5072825;28;20029;-94
2022/06/09 01:54:17;;;;;;;14.93;2.55;;;11.70;99.90;;;;;;5076183;28;20036;-92
2022/06/09 01:57:09;;;;;;;14.68;2.28;;;11.60;99.90;;;;;;5074822;28;20044;-94
2022/06/09 02:00:04;;;;;;;17.38;2.63;;;11.60;99.90;;;;;;5075391;28;20013;-92
2022/06/09 02:02:34;;;;;;;6.28;1.80;;;11.50;99.90;;;;;;5075796;28;20029;-93
2022/06/09 02:05:10;;;;;;;10.73;2.42;;;11.50;99.90;;;;;;5075407;28;20032;-90
2022/06/09 02:07:39;;;;;;;14.30;2.30;;;11.50;99.90;;;;;;5077391;28;20047;-91
2022/06/09 02:10:12;;;;;;;17.50;2.75;;;11.40;99.90;;;;;;5077284;28;20021;-91
2022/06/09 02:12:38;;;;;;;11.93;2.05;;;11.40;99.90;;;;;;5078225;28;20044;-96
2022/06/09 02:15:06;;;;;;;13.75;2.72;;;11.40;99.90;;;;;;5078625;28;20055;-94
2022/06/09 02:17:44;;;;;;;13.82;2.25;;;11.30;99.90;;;;;;5077886;28;20033;-95
2022/06/09 02:20:11;;;;;;;10.90;2.58;;;11.30;99.90;;;;;;5077493;28;20044;-93
2022/06/09 02:22:36;;;;;;;12.10;2.40;;;11.30;99.90;;;;;;5079262;28;20036;-92
2022/06/09 02:25:02;;;;;;;6.28;2.45;;;11.20;99.90;;;;;;5079980;28;20116;-94
2022/06/09 02:27:28;;;;;;;10.82;2.50;;;11.20;99.90;;;;;;5079382;28;20016;-93
2022/06/09 02:29:54;;;;;;;10.98;2.00;;;11.20;99.90;;;;;;5078410;28;20108;-93
2022/06/09 02:32:19;;;;;;;8.63;1.92;;;11.20;99.90;;;;;;5078358;28;20031;-94
2022/06/09 02:34:45;;;;;;;13.18;2.20;;;11.20;99.90;;;;;;5077782;28;20043;-94
2022/06/09 02:37:11;;;;;;;16.73;2.78;;;11.10;99.90;;;;;;5080506;28;20040;-89
2022/06/09 02:39:36;;;;;;;21.90;2.45;;;11.10;99.90;;;;;;5080660;28;20056;-91
2022/06/09 02:42:03;;;;;;;12.43;1.92;;;11.00;99.90;;;;;;5080532;28;20033;-93
2022/06/09 02:44:29;;;;;;;9.20;1.55;;;11.00;99.90;;;;;;5080630;28;20077;-90
2022/06/09 02:46:54;;;;;;;13.88;2.30;;;10.90;99.90;;;;;;5080776;28;20029;-89
2022/06/09 02:49:21;;;;;;;11.30;2.10;;;10.90;99.90;;;;;;5080641;28;20032;-91
2022/06/09 02:51:47;;;;;;;7.65;1.75;;;10.90;99.90;;;;;;5080464;28;20032;-93
2022/06/09 02:54:13;;;;;;;11.40;2.03;;;10.90;99.90;;;;;;5080138;28;20028;-90
2022/06/09 02:56:41;;;;;;;9.18;1.80;;;10.90;99.90;;;;;;5080060;28;20032;-91
2022/06/09 02:59:07;;;;;;;11.60;1.88;;;10.90;99.90;;;;;;5080176;28;20020;-92
2022/06/09 03:01:33;;;;;;;17.08;2.50;;;10.90;99.90;;;;;;5080270;28;20016;-89
2022/06/09 03:03:59;;;;;;;9.23;2.53;;;10.90;99.90;;;;;;5080189;28;20021;-91
2022/06/09 03:06:25;;;;;;;8.68;1.67;;;10.90;99.90;;;;;;5079624;28;20029;-93
2022/06/09 03:08:50;;;;;;;11.18;1.95;;;10.90;99.90;;;;;;5062847;28;20021;-93
2022/06/09 03:11:17;;;;;;;8.57;1.80;;;10.90;99.90;;;;;;5077104;28;20017;-94
2022/06/09 03:13:43;;;;;;;14.57;2.22;;;10.90;99.90;;;;;;5074023;28;20089;-94
2022/06/09 03:16:11;;;;;;;18.38;2.22;;;10.90;99.90;;;;;;5072159;28;20053;-92
2022/06/09 03:18:37;;;;;;;10.43;2.60;;;10.80;99.90;;;;;;5075235;28;20043;-93
2022/06/09 03:21:04;;;;;;;12.45;2.03;;;10.80;99.90;;;;;;5075576;28;20037;-94
2022/06/09 03:23:29;;;;;;;10.95;1.90;;;10.80;99.90;;;;;;5072095;28;20025;-92
2022/06/09 03:25:55;;;;;;;11.20;2.03;;;10.80;99.90;;;;;;5070855;28;20035;-94
2022/06/09 03:28:22;;;;;;;8.65;1.90;;;10.80;99.90;;;;;;5073417;28;20049;-93
2022/06/09 03:30:48;;;;;;;9.05;2.38;;;10.80;99.90;;;;;;5074983;28;20028;-93
2022/06/09 03:33:13;;;;;;;5.78;1.73;;;10.80;99.90;;;;;;5073415;28;20024;-93
2022/06/09 03:35:40;;;;;;;7.40;1.80;;;10.80;99.90;;;;;;5073265;28;20037;-94
2022/06/09 03:38:06;;;;;;;7.68;1.60;;;10.80;99.90;;;;;;5069746;28;20033;-95
2022/06/09 03:40:32;;;;;;;6.80;1.75;;;10.80;99.90;;;;;;5069891;28;20123;-94
2022/06/09 03:43:02;;;;;;;11.18;1.88;;;10.80;99.90;;;;;;5065356;28;20025;-93
2022/06/09 03:45:29;;;;;;;11.80;1.95;;;10.80;99.90;;;;;;5063831;28;20172;-94
2022/06/09 03:47:55;;;;;;;14.43;2.03;;;10.80;99.90;;;;;;5061832;28;20167;-95
2022/06/09 03:50:24;;;;;;;10.82;2.00;;;10.80;99.90;;;;;;5060846;28;20089;-94
2022/06/09 03:52:49;;;;;;;16.55;1.90;;;10.80;99.90;;;;;;5064137;28;20028;-93
2022/06/09 03:55:16;;;;;;;14.00;2.00;;;10.80;99.90;;;;;;5063847;28;20021;-94
2022/06/09 03:57:42;;;;;;;5.88;1.70;;;10.70;99.90;;;;;;5060360;28;20064;-94
2022/06/09 04:00:12;;;;;;;11.57;2.28;;;10.70;99.90;;;;;;5063730;28;20048;-94
2022/06/09 04:02:38;;;;;;;16.63;2.00;;;10.70;99.90;;;;;;5065210;28;20032;-94
2022/06/09 04:05:04;;;;;;;12.68;2.20;;;10.60;99.90;;;;;;5069218;28;20037;-94
2022/06/09 04:07:30;;;;;;;12.82;1.80;;;10.60;99.90;;;;;;5072107;28;20017;-93
2022/06/09 04:09:56;;;;;;;8.85;1.85;;;10.50;99.90;;;;;;5071305;28;20036;-95
2022/06/09 04:12:21;;;;;;;12.18;1.90;;;10.50;99.90;;;;;;5066613;28;20029;-95
2022/06/09 04:14:47;;;;;;;6.57;1.60;;;10.50;99.90;;;;;;5066667;28;20391;-94
2022/06/09 04:17:13;;;;;;;11.65;1.73;;;10.50;99.90;;;;;;5045294;28;20044;-94
2022/06/09 04:19:40;;;;;;;8.52;1.60;;;10.50;99.90;;;;;;5060971;28;20028;-93
2022/06/09 04:22:07;;;;;;;7.90;1.77;;;10.60;99.90;;;;;;5059906;28;20029;-93
2022/06/09 04:24:33;;;;;;;7.40;1.75;;;10.60;99.90;;;;;;5060335;28;20137;-93
2022/06/09 04:26:59;;;;;;;10.98;1.67;;;10.60;99.90;;;;;;5062266;28;20032;-95
2022/06/09 04:29:25;;;;;;;13.13;1.73;;;10.60;99.90;;;;;;5060417;28;20052;-93
2022/06/09 04:31:52;;;;;;;9.40;1.90;;;10.60;99.90;;;;;;5058354;28;20032;-95
2022/06/09 04:34:18;;;;;;;7.05;1.42;;;10.60;99.90;;;;;;5058168;28;20017;-94
2022/06/09 04:36:43;;;;;;;11.25;1.95;;;10.70;99.90;;;;;;5059071;28;20090;-95
2022/06/09 04:39:16;;;;;;;5.93;1.40;;;10.70;99.90;;;;;;5061743;28;20009;-94
2022/06/09 04:41:41;;;;;;;7.32;2.13;;;10.80;99.90;;;;;;5062285;28;20025;-94
2022/06/09 04:44:07;;;;;;;11.30;2.28;;;10.80;99.90;;;;;;5062453;28;20017;-95
2022/06/09 04:46:33;;;;;;;7.97;1.70;;;10.80;99.90;;;;;;5061615;28;20061;-93
2022/06/09 04:48:59;;;;;;;9.75;1.40;;;10.90;99.90;;;;;;5060696;28;20028;-94
2022/06/09 04:51:26;;;;;;;16.48;2.10;;;10.90;99.90;;;;;;5059227;28;20130;-94
2022/06/09 04:53:52;;;;;;;8.48;1.60;;;10.90;99.90;;;;;;5059014;28;20028;-93
2022/06/09 04:56:20;;;;;;;9.48;1.80;;;11.00;99.90;;;;;;5057705;28;20048;-94
2022/06/09 04:58:48;;;;;;;4.45;1.33;;;11.00;99.90;;;;;;5061040;28;20036;-94
2022/06/09 05:01:29;;;;;;;13.90;1.75;;;11.10;99.90;;;;;;5055816;28;20470;-93
2022/06/09 05:03:56;;;;;;;8.93;1.92;;;11.10;99.90;;;;;;5057111;28;20029;-94
2022/06/09 05:06:24;;;;;;;10.63;1.95;;;11.10;99.90;;;;;;5058353;28;20158;-94
2022/06/09 05:08:52;;;;;;;7.03;2.47;;;11.10;99.90;;;;;;5057723;28;20032;-94
2022/06/09 05:11:17;;;;;;;10.07;1.88;;;11.10;99.90;;;;;;5057729;28;20029;-94
2022/06/09 05:13:44;;;;;;;11.23;2.25;;;11.10;99.90;;;;;;5058499;28;20470;-93
2022/06/09 05:16:10;;;;;;;12.02;1.67;;;11.10;99.90;;;;;;5056599;28;20033;-95
2022/06/09 05:18:37;;;;;;;6.78;1.50;;;11.10;99.90;;;;;;5058245;28;20025;-94
2022/06/09 05:21:04;;;;;;;7.03;1.42;;;11.10;99.90;;;;;;5066532;28;20036;-94
2022/06/09 05:23:30;;;;;;;6.18;1.50;;;11.10;99.90;;;;;;5075489;28;20029;-94
2022/06/09 05:25:58;;;;;;;9.10;1.80;;;11.10;99.90;;;;;;5075295;28;20040;-92
2022/06/09 05:28:27;;;;;;;11.02;2.10;;;11.20;99.90;;;;;;5076807;28;20043;-91
2022/06/09 05:30:53;;;;;;;10.82;2.00;;;11.20;99.90;;;;;;5070381;28;20037;-92
2022/06/09 05:33:20;;;;;;;12.18;1.80;;;11.20;99.90;;;;;;5065945;28;20433;-93
2022/06/09 05:35:46;;;;;;;9.30;1.70;;;11.20;99.90;;;;;;5067266;28;20133;-91
2022/06/09 05:46:28;;;;;;;9.40;2.20;;;11.30;99.90;;;;;;5067200;28;20040;-95
2022/06/09 05:48:54;;;;;;;18.88;2.30;;;11.40;99.90;;;;;;5070847;28;20044;-95
2022/06/09 05:51:20;;;;;;;12.13;2.20;;;11.50;99.90;;;;;;5073012;28;20088;-94
2022/06/09 05:53:46;;;;;;;9.40;2.28;;;11.50;99.90;;;;;;5078012;28;20044;-95
2022/06/09 05:56:13;;;;;;;16.05;2.80;;;11.50;99.90;;;;;;5078156;28;20093;-92
2022/06/09 05:58:39;;;;;;;12.98;3.40;;;11.50;99.90;;;;;;5075272;28;20047;-94
2022/06/09 06:01:07;;;;;;;11.00;1.40;;;11.60;99.90;;;;;;5077033;28;20024;-92
2022/06/09 06:03:33;;;;;;;13.20;1.90;;;11.60;99.90;;;;;;5074898;28;20032;-94
2022/06/09 06:08:43;;;;;;;16.27;2.00;;;11.60;99.90;;;;;;5061921;28;20040;-94
2022/06/09 06:11:10;;;;;;;9.50;1.63;;;11.60;99.90;;;;;;5062942;28;20025;-94
2022/06/09 06:13:35;;;;;;;8.55;1.58;;;11.60;99.90;;;;;;5066185;28;20025;-93
2022/06/09 06:16:01;;;;;;;3.42;1.08;;;11.60;99.90;;;;;;5070793;28;20028;-93
2022/06/09 06:18:28;;;;;;;14.30;2.05;;;11.70;99.90;;;;;;5067888;28;20047;-95
2022/06/09 06:20:55;;;;;;;7.18;1.30;;;11.70;99.90;;;;;;5070366;28;20028;-94
2022/06/09 06:23:22;;;;;;;10.55;1.55;;;11.80;99.90;;;;;;5064016;28;20021;-93
2022/06/09 06:25:48;;;;;;;6.68;1.52;;;11.80;99.90;;;;;;5069853;28;20115;-94
2022/06/09 06:28:14;;;;;;;8.30;1.80;;;11.90;99.90;;;;;;5062211;28;20025;-95
2022/06/09 06:30:40;;;;;;;7.97;1.60;;;11.90;99.90;;;;;;5063325;28;20028;-93
2022/06/09 06:33:06;;;;;;;8.82;1.95;;;11.80;99.90;;;;;;5072864;28;20037;-93
2022/06/09 06:35:31;;;;;;;10.65;1.60;;;11.90;99.90;;;;;;5058854;28;20120;-93
2022/06/09 06:37:57;;;;;;;7.35;1.58;;;11.80;99.90;;;;;;5061627;28;20063;-95
2022/06/09 06:40:23;;;;;;;10.15;1.30;;;11.90;99.90;;;;;;5061359;28;20041;-94
2022/06/09 06:42:48;;;;;;;6.45;1.40;;;11.90;99.90;;;;;;5065080;28;20052;-95
2022/06/09 06:45:15;;;;;;;10.77;1.38;;;11.90;99.90;;;;;;5065230;28;20079;-92
2022/06/09 06:47:41;;;;;;;12.82;1.88;;;11.90;99.90;;;;;;5070954;28;20033;-93
2022/06/09 06:50:09;;;;;;;13.95;2.03;;;12.00;99.90;;;;;;5066445;28;20055;-92
2022/06/09 06:52:36;;;;;;;9.52;1.50;;;12.00;99.90;;;;;;5063205;28;20056;-93
2022/06/09 06:55:02;;;;;;;9.10;1.58;;;12.00;99.90;;;;;;5060639;28;20033;-93
2022/06/09 06:57:28;;;;;;;8.48;1.55;;;12.10;99.90;;;;;;5058907;28;20064;-93
2022/06/09 06:59:53;;;;;;;11.02;2.25;;;12.10;99.90;;;;;;5064795;28;20021;-95
2022/06/09 07:02:19;;;;;;;6.20;1.58;;;12.20;99.90;;;;;;5064028;28;20029;-94
2022/06/09 07:04:45;;;;;;;9.40;1.42;;;12.20;99.90;;;;;;5059194;28;20033;-92
2022/06/09 07:07:11;;;;;;;9.00;1.40;;;12.30;99.90;;;;;;5056187;28;20029;-91
2022/06/09 07:09:37;;;;;;;17.63;1.70;;;12.40;99.90;;;;;;5056051;28;20070;-91
2022/06/09 07:12:04;;;;;;;7.88;1.17;;;12.40;99.90;;;;;;5058100;28;20017;-93
2022/06/09 07:14:30;;;;;;;10.05;1.50;;;12.50;99.90;;;;;;5065422;28;20029;-95
2022/06/09 07:16:56;;;;;;;9.73;1.63;;;12.60;99.90;;;;;;5065306;28;20036;-92
2022/06/09 07:19:21;;;;;;;7.35;1.30;;;12.70;99.90;;;;;;5069171;28;20021;-93
2022/06/09 07:21:47;;;;;;;8.13;1.13;;;12.80;99.90;;;;;;5070002;28;20054;-96
2022/06/09 07:24:14;;;;;;;14.48;1.92;;;12.90;99.90;;;;;;5070524;28;20021;-94
2022/06/09 07:26:40;;;;;;;11.20;1.90;;;13.00;99.90;;;;;;5064008;28;20036;-93
2022/06/09 07:29:05;;;;;;;11.65;1.65;;;13.10;99.90;;;;;;5063561;28;20021;-93
2022/06/09 07:31:31;;;;;;;12.45;1.83;;;13.20;99.90;;;;;;5071603;28;20037;-93
2022/06/09 07:33:57;;;;;;;10.20;1.60;;;13.30;99.90;;;;;;5072591;28;20017;-92
2022/06/09 07:36:26;;;;;;;11.25;1.80;;;13.40;99.90;;;;;;5074046;28;20087;-92
2022/06/09 07:38:52;;;;;;;9.32;1.45;;;13.50;99.90;;;;;;5069314;28;20017;-93
2022/06/09 07:41:20;;;;;;;9.77;2.25;;;13.60;99.90;;;;;;5072447;28;20024;-93
2022/06/09 07:43:47;;;;;;;9.75;1.27;;;13.60;99.90;;;;;;5062525;28;20409;-93
2022/06/09 07:46:17;;;;;;;12.68;1.67;;;13.70;99.90;;;;;;5062558;28;20021;-95
2022/06/09 07:48:45;;;;;;;9.70;2.00;;;13.80;99.90;;;;;;5058367;28;20039;-94
2022/06/09 07:51:11;;;;;;;10.68;1.50;;;13.90;99.90;;;;;;5064220;28;20029;-94
2022/06/09 07:53:37;;;;;;;14.15;1.50;;;13.90;99.90;;;;;;5058503;28;20052;-93
2022/06/09 07:59:33;;;;;;;10.07;1.52;;;14.00;99.90;;;;;;5032370;28;20065;-94
2022/06/09 08:01:59;;;;;;;9.32;2.35;;;14.10;99.90;;;;;;5021685;28;20029;-93
2022/06/09 08:04:25;;;;;;;8.73;1.50;;;14.20;99.90;;;;;;5019864;28;20116;-93
2022/06/09 08:06:51;;;;;;;7.68;1.75;;;14.20;99.90;;;;;;5019848;28;20033;-94
2022/06/09 08:12:39;;;;;;;15.88;1.60;;;14.40;99.90;;;;;;5037601;28;20044;-93
2022/06/09 08:15:06;;;;;;;14.00;1.88;;;14.50;99.90;;;;;;5019677;28;20112;-92
2022/06/09 08:17:32;;;;;;;6.38;1.33;;;14.50;99.90;;;;;;5019761;28;20037;-92
2022/06/09 08:19:58;;;;;;;14.90;2.00;;;14.60;99.90;;;;;;5025054;28;20089;-92
2022/06/09 08:22:23;;;;;;;17.88;1.63;;;14.60;99.90;;;;;;5026212;28;20110;-91
2022/06/09 08:24:53;;;;;;;8.35;1.92;;;14.70;99.90;;;;;;5021109;28;20022;-93
2022/06/09 08:27:22;;;;;;;6.45;1.38;;;14.80;99.90;;;;;;5019312;28;20025;-93
2022/06/09 08:29:47;;;;;;;7.28;1.40;;;14.90;99.90;;;;;;5018774;28;20033;-92
2022/06/09 08:32:13;;;;;;;3.83;1.35;;;14.90;99.90;;;;;;5018997;28;20052;-92
2022/06/09 08:34:39;;;;;;;9.20;1.20;;;15.00;99.90;;;;;;5018908;28;20026;-93
2022/06/09 08:37:05;;;;;;;4.53;1.13;;;15.20;99.90;;;;;;5018263;28;20038;-93
2022/06/09 08:39:31;;;;;;;7.90;1.45;;;15.40;99.90;;;;;;5020501;28;20071;-91
2022/06/09 08:42:24;;;;;;;10.45;1.25;;;15.60;99.90;;;;;;5019159;28;20026;-92
2022/06/09 08:44:52;;;;;;;8.93;1.60;;;15.70;99.90;;;;;;5018401;28;20022;-92
2022/06/09 08:47:25;;;;;;;8.25;1.50;;;15.80;99.90;;;;;;5018751;28;20489;-93
2022/06/09 08:50:18;;;;;;;8.32;1.60;;;15.80;99.90;;;;;;5018170;28;20029;-92
2022/06/09 08:52:57;;;;;;;6.65;1.02;;;15.90;99.90;;;;;;5036667;28;20046;-94
2022/06/09 08:59:13;;;;;;;6.82;1.50;;;16.00;98.70;;;;;;5038495;28;20414;-92
2022/06/09 09:01:51;;;;;;;8.30;1.10;;;16.10;98.10;;;;;;5022326;28;20032;-90
2022/06/09 09:04:42;;;;;;;4.82;1.13;;;16.20;97.00;;;;;;5020945;28;20026;-93
2022/06/09 09:07:25;;;;;;;10.07;1.80;;;16.40;96.40;;;;;;5024388;28;20036;-91
2022/06/09 09:13:16;;;;;;;6.57;0.93;;;16.80;94.80;;;;;;5054367;28;20020;-91
2022/06/09 09:15:54;;;;;;;8.57;1.45;;;17.00;94.00;;;;;;5022526;28;20021;-90
2022/06/09 09:19:10;;;;;;;11.00;1.85;;;17.00;93.50;;;;;;5018349;28;20035;-92
2022/06/09 09:22:01;;;;;;;6.10;1.10;;;17.20;93.20;;;;;;4920118;29;20190;-94
2022/06/09 09:24:33;;;;;;;8.05;1.15;;;17.50;92.70;;;;;;4936169;29;20039;-91
2022/06/09 09:27:10;;;;;;;4.47;1.10;;;17.50;91.70;;;;;;4935725;29;20087;-92
2022/06/09 09:30:07;;;;;;;7.97;1.23;;;17.50;91.50;;;;;;4935980;29;20042;-92
2022/06/09 09:32:42;;;;;;;4.75;1.08;;;17.60;91.10;;;;;;4917067;29;20037;-91
2022/06/09 09:35:17;;;;;;;10.95;1.60;;;17.50;90.70;;;;;;4916554;29;20131;-92
2022/06/09 09:37:46;;;;;;;7.32;1.40;;;17.40;90.60;;;;;;4917267;29;20171;-94
2022/06/09 09:40:12;;;;;;;8.15;1.35;;;17.40;90.80;;;;;;4917010;29;20073;-92
2022/06/09 09:42:42;;;;;;;3.67;1.35;;;17.30;90.80;;;;;;4916992;29;20051;-89
2022/06/09 09:45:10;;;;;;;7.00;1.58;;;17.30;90.60;;;;;;4916971;29;20035;-90
2022/06/09 09:47:44;;;;;;;3.53;0.93;;;17.30;90.30;;;;;;4916413;29;20028;-93
2022/06/09 09:50:58;;;;;;;6.75;1.05;;;17.30;90.30;;;;;;4916610;29;20537;-92
2022/06/09 09:53:30;;;;;;;5.15;1.08;;;17.30;90.40;;;;;;4883778;29;20036;-91
2022/06/09 09:56:03;;;;;;;5.43;1.00;;;17.30;90.20;;;;;;4954684;28;20035;-89
2022/06/09 09:58:56;;;;;;;7.88;1.35;;;17.30;89.60;;;;;;4962224;28;20038;-93
2022/06/09 10:01:24;;;;;;;1.98;1.25;;;17.30;89.20;;;;;;5013272;28;20022;-90
2022/06/09 10:09:38;;;;;;;8.85;1.40;;;17.20;88.70;;;;;;5035214;28;20040;-93
2022/06/09 10:12:08;;;;;;;5.47;1.60;;;17.20;89.00;;;;;;5054531;28;20040;-91
2022/06/09 10:14:54;;;;;;;8.18;1.85;;;17.30;89.10;;;;;;5054003;28;20033;-93
2022/06/09 10:17:25;;;;;;;6.28;0.93;;;17.60;89.00;;;;;;5053302;28;20375;-93
2022/06/09 10:20:05;;;;;;;6.97;1.48;;;17.80;87.90;;;;;;5054152;28;20103;-91
2022/06/09 10:22:36;;;;;;;5.93;1.13;;;18.00;86.40;;;;;;5055420;28;20049;-90
2022/06/09 10:25:29;;;;;;;6.57;1.48;;;18.30;85.80;;;;;;5056309;28;20035;-92
2022/06/09 10:28:05;;;;;;;7.47;1.10;;;18.40;85.10;;;;;;5055025;28;20035;-92
2022/06/09 10:30:41;;;;;;;5.70;0.90;;;18.50;84.60;;;;;;5053867;28;20044;-92
2022/06/09 10:33:21;;;;;;;4.88;1.20;;;18.50;83.10;;;;;;5054685;28;20021;-91
2022/06/09 10:35:54;;;;;;;6.75;0.90;;;18.60;83.10;;;;;;5057639;28;20040;-93
2022/06/09 10:38:26;;;;;;;8.00;1.23;;;18.60;82.30;;;;;;5056912;28;20473;-92
2022/06/09 10:40:56;;;;;;;8.55;1.23;;;18.60;80.80;;;;;;5056796;28;20120;-92
2022/06/09 10:43:49;;;;;;;6.43;2.13;;;18.60;80.80;;;;;;5057115;28;20470;-92
2022/06/09 10:56:01;;;;;;;4.40;0.90;;;19.20;78.80;;;;;;5058018;28;20028;-92
2022/06/09 10:58:34;;;;;;;6.80;1.30;;;19.20;78.40;;;;;;5054331;28;20048;-92
2022/06/09 11:01:00;;;;;;;6.47;1.73;;;19.30;78.70;;;;;;5019965;28;20033;-93
2022/06/09 11:03:31;;;;;;;5.75;1.70;;;19.30;78.10;;;;;;5020418;28;20026;-92
2022/06/09 11:06:12;;;;;;;6.88;1.38;;;19.10;77.80;;;;;;5020422;28;20021;-92
2022/06/09 11:08:37;;;;;;;;;;;18.90;78.00;;;;;;5020552;28;20025;-90
2022/06/09 11:11:39;;;;;;;8.02;1.38;;;18.80;78.40;;;;;;5021849;28;20055;-92
2022/06/09 11:14:28;;;;;;;7.32;1.17;;;18.60;79.10;;;;;;4980676;28;20040;-90
2022/06/09 11:17:17;;;;;;;9.40;1.20;;;18.50;79.30;;;;;;5029549;28;20052;-91
2022/06/09 11:19:52;;;;;;;8.23;1.67;;;18.40;79.00;;;;;;5007246;28;20281;-91
2022/06/09 11:22:48;;;;;;;4.80;1.05;;;18.20;79.80;;;;;;5019405;28;20037;-92
2022/06/09 11:25:25;;;;;;;9.00;1.45;;;18.10;80.30;;;;;;5020139;28;20043;-90
2022/06/09 11:28:15;;;;;;;7.18;1.20;;;18.10;80.90;;;;;;5022399;28;20043;-91
2022/06/09 11:31:12;;;;;;;11.90;2.33;;;18.10;81.30;;;;;;5019175;28;20025;-92
2022/06/09 11:33:54;;;;;;;6.25;1.35;;;18.00;81.50;;;;;;4970092;28;20030;-92
2022/06/09 11:36:41;;;;;;;6.97;1.73;;;18.00;81.70;;;;;;5019308;28;20199;-91
2022/06/09 11:39:38;;;;;;;10.27;1.50;;;18.00;82.10;;;;;;5019782;28;20029;-92
2022/06/09 11:42:37;;;;;;;8.43;1.90;;;17.90;83.50;;;;;;5019279;28;20025;-93
2022/06/09 11:45:20;;;;;;;8.88;1.40;;;17.90;85.30;;;;;;5019500;28;20021;-93
2022/06/09 11:47:46;;;;;;;16.73;1.98;;;17.80;86.50;;;;;;5020228;28;20111;-93
2022/06/09 11:50:17;;;;;;;7.72;1.70;;;17.70;87.70;;;;;;5019755;28;20029;-93
2022/06/09 11:52:47;;;;;;;9.00;1.85;;;17.70;89.30;;;;;;5021093;28;20527;-92
2022/06/09 11:55:57;;;;;;;8.13;1.60;;;17.60;90.10;;;;;;5019238;28;20050;-93
2022/06/09 11:58:38;;;;;;;10.27;1.80;;;17.60;90.90;;;;;;4924257;28;20153;-90
2022/06/09 12:01:03;;;;;;;;;;;17.50;91.40;;;;;;4961067;28;20062;-91
2022/06/09 12:03:41;;;;;;;9.13;1.60;;;17.60;91.80;;;;;;4978988;28;19910;-92
2022/06/09 12:06:24;;;;;;;9.00;1.38;;;17.50;91.90;;;;;;4982878;28;20599;-93
2022/06/09 12:08:55;;;;;;;7.43;1.90;;;17.40;91.80;;;;;;4976375;28;20027;-91
2022/06/09 12:11:24;;;;;;;8.70;1.45;;;17.40;92.10;;;;;;4959489;28;20504;-92
2022/06/09 12:13:58;;;;;;;19.20;2.00;;;17.40;92.30;;;;;;4976134;28;20035;-90
2022/06/09 12:16:38;;;;;;;6.93;1.50;;;17.40;92.40;;;;;;4959507;28;20065;-91
2022/06/09 12:19:18;;;;;;;8.65;1.40;;;17.50;92.30;;;;;;4977261;28;20044;-89
2022/06/09 12:21:49;;;;;;;12.18;1.65;;;17.80;92.30;;;;;;4961026;28;20105;-92
2022/06/09 12:24:14;;;;;;;5.63;1.20;;;18.00;91.70;;;;;;4975900;28;20038;-91
2022/06/09 12:26:40;;;;;;;6.53;1.13;;;18.10;90.20;;;;;;4959531;28;20073;-92
2022/06/09 12:29:34;;;;;;;7.25;1.38;;;18.10;89.40;;;;;;4959419;28;20070;-94
2022/06/09 12:32:09;;;;;;;7.63;1.05;;;18.40;87.70;;;;;;4997834;28;20029;-90
2022/06/09 12:34:41;;;;;;;6.03;1.10;;;18.40;86.20;;;;;;5054979;28;20068;-92
2022/06/09 12:37:25;;;;;;;5.15;1.10;;;18.50;84.00;;;;;;5054837;28;20059;-92
2022/06/09 12:40:05;;;;;;;4.35;1.00;;;18.60;83.70;;;;;;5054752;28;20065;-91
2022/06/09 12:42:52;;;;;;;5.85;1.10;;;18.70;84.00;;;;;;5054479;28;20025;-94
2022/06/09 12:45:32;;;;;;;6.25;1.10;;;18.80;83.40;;;;;;5054273;28;20131;-92
2022/06/09 12:48:02;;;;;;;5.10;1.13;;;18.70;82.20;;;;;;5055029;28;20036;-93
2022/06/09 12:50:36;;;;;;;6.00;0.98;;;18.90;82.00;;;;;;5054548;28;20032;-93
2022/06/09 12:53:04;;;;;;;5.07;0.85;;;19.00;81.80;;;;;;5055239;28;20032;-93
2022/06/09 12:55:38;;;;;;;6.25;1.85;;;19.20;81.10;;;;;;5053966;28;20031;-92
2022/06/09 12:58:18;;;;;;;6.63;1.10;;;19.20;80.50;;;;;;5054243;28;20037;-93
2022/06/09 13:01:11;;;;;;;9.07;1.40;;;19.10;80.70;;;;;;5054368;28;20196;-93
2022/06/09 13:03:55;;;;;;;5.53;1.58;;;18.90;81.50;;;;;;5054338;28;20089;-90
2022/06/09 13:06:27;;;;;;;6.40;0.90;;;18.70;81.70;;;;;;5054542;28;20021;-89
2022/06/09 13:08:56;;;;;;;8.35;1.17;;;18.60;82.40;;;;;;5054445;28;20450;-90
2022/06/09 13:14:14;;;;;;;3.47;0.95;;;18.50;82.30;;;;;;5055988;28;20047;-91
2022/06/09 13:20:10;;;;;;;5.63;1.13;;;18.60;82.90;;;;;;5056010;28;20040;-93
2022/06/09 13:22:36;;;;;;;2.42;0.70;;;18.70;83.50;;;;;;5059162;28;20493;-92
2022/06/09 13:25:04;;;;;;;5.50;1.10;;;18.80;83.70;;;;;;5060539;28;20025;-90
2022/06/09 13:27:32;;;;;;;4.20;0.88;;;18.90;82.90;;;;;;5062847;28;20058;-91
2022/06/09 13:33:46;;;;;;;7.40;1.17;;;19.20;81.80;;;;;;5066772;28;20548;-93
2022/06/09 13:36:32;;;;;;;3.35;0.65;;;19.30;80.90;;;;;;5054495;28;20028;-92
2022/06/09 13:39:18;;;;;;;4.85;0.93;;;19.10;79.50;;;;;;5054277;28;20029;-91
2022/06/09 13:41:45;;;;;;;1.92;0.80;;;18.90;80.00;;;;;;5053709;28;20021;-93
2022/06/09 13:44:25;;;;;;;4.82;1.00;;;18.80;81.00;;;;;;5054118;28;20033;-94
2022/06/09 13:47:19;;;;;;;5.22;0.93;;;18.70;81.20;;;;;;5053891;28;20017;-92
2022/06/09 13:50:05;;;;;;;2.00;0.68;;;18.60;81.70;;;;;;5054060;28;20032;-93
2022/06/09 13:52:36;;;;;;;4.90;0.90;;;18.50;82.40;;;;;;5054188;28;20040;-93
2022/06/09 13:55:05;;;;;;;6.93;1.55;;;18.50;83.10;;;;;;5055552;28;20028;-93
2022/06/09 13:57:38;;;;;;;4.90;0.90;;;18.50;83.50;;;;;;5054502;28;20056;-92